createdAt,value
2024-05-09T00:01:53.350Z,92.90
2024-05-09T00:04:24.347Z,92.80
2024-05-09T00:07:13.609Z,93.10
2024-05-09T00:09:45.758Z,93.10
2024-05-09T00:12:16.320Z,93.20
2024-05-09T00:14:46.746Z,92.70
2024-05-09T00:17:17.889Z,92.70
2024-05-09T00:19:49.365Z,92.70
2024-05-09T00:22:20.254Z,92.50
2024-05-09T00:24:51.581Z,92.30
2024-05-09T00:27:22.506Z,91.70
2024-05-09T00:29:52.956Z,91.40
2024-05-09T00:32:23.875Z,90.10
2024-05-09T00:34:54.920Z,90.20
2024-05-09T00:37:25.661Z,90.30
2024-05-09T00:39:56.096Z,89.40
2024-05-09T00:42:26.469Z,88.60
2024-05-09T00:44:56.899Z,89.60
2024-05-09T00:47:27.556Z,87.70
2024-05-09T00:49:58.130Z,87.50
2024-05-09T00:52:29.326Z,89.20
2024-05-09T00:55:00.025Z,89.20
2024-05-09T00:57:30.866Z,89.60
2024-05-09T01:00:03.629Z,89.10
2024-05-09T01:02:35.601Z,88.50
2024-05-09T01:05:06.924Z,87.30
2024-05-09T01:07:38.191Z,89.30
2024-05-09T01:10:17.001Z,88.50
2024-05-09T01:12:51.859Z,88.20
2024-05-09T01:15:23.234Z,88.40
2024-05-09T01:17:57.458Z,88.50
2024-05-09T01:20:37.541Z,87.40
2024-05-09T01:23:14.152Z,87.30
2024-05-09T01:25:49.875Z,86.90
2024-05-09T01:28:21.944Z,86.20
2024-05-09T01:30:52.365Z,86.50
2024-05-09T01:33:23.537Z,86.90
2024-05-09T01:35:54.062Z,88.90
2024-05-09T01:38:31.446Z,90.70
2024-05-09T01:41:02.423Z,91.30
2024-05-09T01:43:34.265Z,91.90
2024-05-09T01:46:05.278Z,91.90
2024-05-09T01:48:35.884Z,91.30
2024-05-09T01:51:06.672Z,91.80
2024-05-09T01:53:37.522Z,92.20
2024-05-09T01:56:08.841Z,91.90
2024-05-09T01:58:39.843Z,91.70
2024-05-09T02:01:10.247Z,91.80
2024-05-09T02:03:41.307Z,92.00
2024-05-09T02:06:11.773Z,92.60
2024-05-09T02:08:42.609Z,92.80
2024-05-09T02:11:13.124Z,93.10
2024-05-09T02:13:44.692Z,94.60
2024-05-09T02:16:15.767Z,94.70
2024-05-09T02:18:46.320Z,93.70
2024-05-09T02:21:16.860Z,93.60
2024-05-09T02:23:49.061Z,92.80
2024-05-09T02:26:19.660Z,92.90
2024-05-09T02:28:50.142Z,92.90
2024-05-09T02:31:21.206Z,93.40
2024-05-09T02:33:54.223Z,93.30
2024-05-09T02:36:24.777Z,93.30
2024-05-09T02:38:56.813Z,92.80
2024-05-09T02:41:29.172Z,92.10
2024-05-09T02:43:59.855Z,91.60
2024-05-09T02:46:30.717Z,91.20
2024-05-09T02:49:01.343Z,91.40
2024-05-09T02:51:31.791Z,91.00
2024-05-09T02:54:02.212Z,91.10
2024-05-09T02:56:32.717Z,90.90
2024-05-09T02:59:03.237Z,91.60
2024-05-09T03:01:33.843Z,92.00
2024-05-09T03:04:04.716Z,92.20
2024-05-09T03:06:35.850Z,91.70
2024-05-09T03:09:06.643Z,92.00
2024-05-09T03:11:37.346Z,92.20
2024-05-09T03:14:07.990Z,92.10
2024-05-09T03:16:44.487Z,92.40
2024-05-09T03:19:15.764Z,91.70
2024-05-09T03:21:46.761Z,92.10
2024-05-09T03:24:17.189Z,92.00
2024-05-09T03:26:47.632Z,90.00
2024-05-09T03:29:18.174Z,86.80
2024-05-09T03:31:48.708Z,87.50
2024-05-09T03:34:20.848Z,87.60
2024-05-09T03:36:51.307Z,86.30
2024-05-09T03:39:21.787Z,86.90
2024-05-09T03:41:52.212Z,86.80
2024-05-09T03:44:23.136Z,85.60
2024-05-09T03:46:53.679Z,86.60
2024-05-09T03:49:24.572Z,86.30
2024-05-09T03:51:55.496Z,87.40
2024-05-09T03:54:26.557Z,87.80
2024-05-09T03:56:56.944Z,89.40
2024-05-09T03:59:27.451Z,88.20
2024-05-09T04:01:58.019Z,87.80
2024-05-09T04:04:28.558Z,87.00
2024-05-09T04:06:58.957Z,86.20
2024-05-09T04:09:29.384Z,84.60
2024-05-09T04:11:59.926Z,84.40
2024-05-09T04:14:31.194Z,85.10
2024-05-09T04:17:01.899Z,85.60
2024-05-09T04:19:33.040Z,84.80
2024-05-09T04:22:03.930Z,85.70
2024-05-09T04:24:35.209Z,86.30
2024-05-09T04:27:06.393Z,85.90
2024-05-09T04:29:40.387Z,86.30
2024-05-09T04:32:11.786Z,87.20
2024-05-09T04:34:42.908Z,87.70
2024-05-09T04:37:14.043Z,88.00
2024-05-09T04:39:44.979Z,88.70
2024-05-09T04:42:16.217Z,88.80
2024-05-09T04:44:47.061Z,87.40
2024-05-09T04:47:18.578Z,86.40
2024-05-09T04:49:49.352Z,85.90
2024-05-09T04:52:20.054Z,85.50
2024-05-09T04:54:50.965Z,86.30
2024-05-09T04:57:21.931Z,86.20
2024-05-09T04:59:53.289Z,85.70
2024-05-09T05:02:24.842Z,86.30
2024-05-09T05:04:55.448Z,86.90
2024-05-09T05:07:28.046Z,87.40
2024-05-09T05:09:59.862Z,87.60
2024-05-09T05:12:49.311Z,86.60
2024-05-09T05:15:21.792Z,86.00
2024-05-09T05:17:52.799Z,86.40
2024-05-09T05:20:30.928Z,86.00
2024-05-09T05:23:04.567Z,86.60
2024-05-09T05:25:35.176Z,86.20
2024-05-09T05:28:06.317Z,86.10
2024-05-09T05:30:39.516Z,86.50
2024-05-09T05:33:20.598Z,85.80
2024-05-09T05:35:59.325Z,85.10
2024-05-09T05:38:32.693Z,85.30
2024-05-09T05:41:03.252Z,85.40
2024-05-09T05:43:33.695Z,85.10
2024-05-09T05:46:04.255Z,85.10
2024-05-09T05:48:34.852Z,86.90
2024-05-09T05:51:07.440Z,83.80
2024-05-09T05:53:37.878Z,83.20
2024-05-09T05:56:08.808Z,83.60
2024-05-09T05:58:40.319Z,84.50
2024-05-09T06:01:10.842Z,83.50
2024-05-09T06:03:41.886Z,83.10
2024-05-09T06:06:13.000Z,83.10
2024-05-09T06:08:43.568Z,84.40
2024-05-09T06:11:14.227Z,83.90
2024-05-09T06:13:47.770Z,83.90
2024-05-09T06:16:18.298Z,84.10
2024-05-09T06:18:48.920Z,84.70
2024-05-09T06:21:22.722Z,86.70
2024-05-09T06:23:55.482Z,88.70
2024-05-09T06:26:26.057Z,90.20
2024-05-09T06:28:56.567Z,90.60
2024-05-09T06:31:27.659Z,91.20
2024-05-09T06:33:58.379Z,91.50
2024-05-09T06:36:29.185Z,92.20
2024-05-09T06:38:59.640Z,92.50
2024-05-09T06:41:30.243Z,92.90
2024-05-09T06:44:01.408Z,92.90
2024-05-09T06:46:32.627Z,93.50
2024-05-09T06:49:09.701Z,93.70
2024-05-09T06:51:40.984Z,93.40
2024-05-09T06:54:11.863Z,94.10
2024-05-09T06:56:43.377Z,94.00
2024-05-09T06:59:14.684Z,93.40
2024-05-09T07:01:45.383Z,94.00
2024-05-09T07:04:16.555Z,94.00
2024-05-09T07:06:47.435Z,94.30
2024-05-09T07:09:18.491Z,94.50
2024-05-09T07:11:49.797Z,94.90
2024-05-09T07:14:20.262Z,95.20
2024-05-09T07:16:50.857Z,95.20
2024-05-09T07:19:22.166Z,95.40
2024-05-09T07:21:53.670Z,95.80
2024-05-09T07:24:24.111Z,95.80
2024-05-09T07:26:56.242Z,96.20
2024-05-09T07:29:27.173Z,96.30
2024-05-09T07:31:58.466Z,96.40
2024-05-09T07:34:28.996Z,96.90
2024-05-09T07:37:00.270Z,96.50
2024-05-09T07:39:31.028Z,96.10
2024-05-09T07:42:02.676Z,96.50
2024-05-09T07:44:33.254Z,96.60
2024-05-09T07:48:14.322Z,96.40
2024-05-09T07:51:32.905Z,96.80
2024-05-09T07:53:34.443Z,96.70
2024-05-09T07:55:35.923Z,96.50
2024-05-09T07:58:06.672Z,96.40
2024-05-09T08:00:37.227Z,96.50
2024-05-09T08:03:07.973Z,96.10
2024-05-09T08:05:39.991Z,96.60
2024-05-09T08:08:11.469Z,96.60
2024-05-09T08:10:41.991Z,96.70
2024-05-09T08:13:12.806Z,96.50
2024-05-09T08:15:43.584Z,96.50
2024-05-09T08:18:15.328Z,96.40
2024-05-09T08:20:46.448Z,96.40
2024-05-09T08:23:17.569Z,96.10
2024-05-09T08:25:48.883Z,96.30
2024-05-09T08:28:20.250Z,96.30
2024-05-09T08:30:50.918Z,96.30
2024-05-09T08:33:22.742Z,96.10
2024-05-09T08:35:53.343Z,95.50
2024-05-09T08:38:33.143Z,95.70
2024-05-09T08:41:07.135Z,95.70
2024-05-09T08:43:41.944Z,95.30
2024-05-09T08:46:15.127Z,95.60
2024-05-09T08:48:47.848Z,95.60
2024-05-09T08:51:18.684Z,95.80
2024-05-09T08:53:50.155Z,95.80
2024-05-09T08:56:22.766Z,96.00
2024-05-09T08:59:01.396Z,96.10
2024-05-09T09:01:38.156Z,95.80
2024-05-09T09:04:13.903Z,95.80
2024-05-09T09:06:46.593Z,96.10
2024-05-09T09:09:18.105Z,96.30
2024-05-09T09:11:48.597Z,95.90
2024-05-09T09:14:19.222Z,96.10
2024-05-09T09:16:49.879Z,96.00
2024-05-09T09:19:21.223Z,96.20
2024-05-09T09:21:51.961Z,96.10
2024-05-09T09:24:22.741Z,95.90
2024-05-09T09:26:53.984Z,95.90
2024-05-09T09:29:26.670Z,96.10
2024-05-09T09:32:06.125Z,96.00
2024-05-09T09:34:37.802Z,96.30
2024-05-09T09:37:12.848Z,96.40
2024-05-09T09:39:43.865Z,96.30
2024-05-09T09:42:19.232Z,96.50
2024-05-09T09:45:01.831Z,96.40
2024-05-09T09:47:41.503Z,96.50
2024-05-09T09:50:17.091Z,96.10
2024-05-09T09:52:54.756Z,96.10
2024-05-09T09:55:29.318Z,96.90
2024-05-09T09:57:59.910Z,96.60
2024-05-09T10:00:33.378Z,96.70
2024-05-09T10:03:04.682Z,96.30
2024-05-09T10:05:36.854Z,96.60
2024-05-09T10:08:10.203Z,96.20
2024-05-09T10:10:40.909Z,96.20
2024-05-09T10:13:11.440Z,96.10
2024-05-09T10:15:55.301Z,96.10
2024-05-09T10:18:29.326Z,95.80
2024-05-09T10:21:01.988Z,95.70
2024-05-09T10:23:38.017Z,95.80
2024-05-09T10:26:09.004Z,95.80
2024-05-09T10:28:46.110Z,95.90
2024-05-09T10:31:18.348Z,95.70
2024-05-09T10:33:53.789Z,95.80
2024-05-09T10:36:28.626Z,95.60
2024-05-09T10:38:59.081Z,95.50
2024-05-09T10:41:29.595Z,95.80
2024-05-09T10:44:00.612Z,95.60
2024-05-09T10:46:31.212Z,95.40
2024-05-09T10:49:05.331Z,95.40
2024-05-09T10:51:39.334Z,95.80
2024-05-09T10:54:10.153Z,95.70
2024-05-09T10:56:40.681Z,95.80
2024-05-09T10:59:11.489Z,95.70
2024-05-09T11:01:43.465Z,95.60
2024-05-09T11:04:14.528Z,96.10
2024-05-09T11:06:45.588Z,96.00
2024-05-09T11:09:16.501Z,96.10
2024-05-09T11:11:47.161Z,95.90
2024-05-09T11:14:18.940Z,95.90
2024-05-09T11:16:50.288Z,96.00
2024-05-09T11:19:21.295Z,96.20
2024-05-09T11:21:55.040Z,96.20
2024-05-09T11:24:26.051Z,96.10
2024-05-09T11:26:58.894Z,95.90
2024-05-09T11:29:43.220Z,96.00
2024-05-09T11:32:16.967Z,95.50
2024-05-09T11:34:47.719Z,95.70
2024-05-09T11:37:19.108Z,95.90
2024-05-09T11:39:49.603Z,95.80
2024-05-09T11:42:21.271Z,95.90
2024-05-09T11:44:54.746Z,95.70
2024-05-09T11:47:25.463Z,95.80
2024-05-09T11:49:59.849Z,95.80
2024-05-09T11:52:30.495Z,95.50
2024-05-09T11:55:01.184Z,95.60
2024-05-09T11:57:32.292Z,95.50
2024-05-09T12:00:04.252Z,95.40
2024-05-09T12:02:36.177Z,95.50
2024-05-09T12:05:06.886Z,95.70
2024-05-09T12:07:38.137Z,95.70
2024-05-09T12:10:16.458Z,95.80
2024-05-09T12:12:50.210Z,95.80
2024-05-09T12:15:20.653Z,95.90
2024-05-09T12:17:51.374Z,96.10
2024-05-09T12:20:28.852Z,96.20
2024-05-09T12:23:06.704Z,96.50
2024-05-09T12:25:38.350Z,96.50
2024-05-09T12:28:10.451Z,97.20
2024-05-09T12:30:41.595Z,96.90
2024-05-09T12:33:16.865Z,97.00
2024-05-09T12:35:50.143Z,96.60
2024-05-09T12:38:25.360Z,97.00
2024-05-09T12:40:56.064Z,96.90
2024-05-09T12:43:26.801Z,96.80
2024-05-09T12:45:57.255Z,96.70
2024-05-09T12:48:27.916Z,97.40
2024-05-09T12:50:59.294Z,97.00
2024-05-09T12:53:30.400Z,97.00
2024-05-09T12:56:02.995Z,96.90
2024-05-09T12:58:35.037Z,97.10
2024-05-09T13:01:05.494Z,97.00
2024-05-09T13:03:36.290Z,97.10
2024-05-09T13:06:07.597Z,97.10
2024-05-09T13:08:38.742Z,97.00
2024-05-09T13:11:09.176Z,97.20
2024-05-09T13:13:39.792Z,97.10
2024-05-09T13:16:10.396Z,97.40
2024-05-09T13:18:41.085Z,97.10
2024-05-09T13:21:12.016Z,97.10
2024-05-09T13:23:42.562Z,97.10
2024-05-09T13:26:12.980Z,97.10
2024-05-09T13:28:44.213Z,96.70
2024-05-09T13:31:14.633Z,96.90
2024-05-09T13:33:45.384Z,97.10
2024-05-09T13:36:16.011Z,97.40
2024-05-09T13:38:46.548Z,97.10
2024-05-09T13:41:17.387Z,97.10
2024-05-09T13:43:47.958Z,97.10
2024-05-09T13:46:19.445Z,96.80
2024-05-09T13:48:50.151Z,96.90
2024-05-09T13:51:20.583Z,97.00
2024-05-09T13:53:51.042Z,97.00
2024-05-09T13:56:21.562Z,97.10
2024-05-09T13:58:52.908Z,97.00
2024-05-09T14:01:23.328Z,97.00
2024-05-09T14:03:54.031Z,96.90
2024-05-09T14:06:25.220Z,97.20
2024-05-09T14:08:56.459Z,97.40
2024-05-09T14:11:27.367Z,97.10
2024-05-09T14:13:58.665Z,97.10
2024-05-09T14:16:29.403Z,97.00
2024-05-09T14:19:00.223Z,97.00
2024-05-09T14:21:30.728Z,96.90
2024-05-09T14:24:02.936Z,96.90
2024-05-09T14:26:33.392Z,96.80
2024-05-09T14:29:04.422Z,96.90
2024-05-09T14:31:36.933Z,96.70
2024-05-09T14:34:09.828Z,96.70
2024-05-09T14:36:40.391Z,96.90
2024-05-09T14:39:10.998Z,96.70
2024-05-09T14:41:42.463Z,96.40
2024-05-09T14:44:14.363Z,96.60
2024-05-09T14:46:44.999Z,96.60
2024-05-09T14:49:15.632Z,96.40
2024-05-09T14:51:50.708Z,96.10
2024-05-09T14:54:21.951Z,96.20
2024-05-09T14:57:01.135Z,96.50
2024-05-09T14:59:31.526Z,96.70
2024-05-09T15:02:02.179Z,96.70
2024-05-09T15:04:32.839Z,96.80
2024-05-09T15:07:03.603Z,96.70
2024-05-09T15:09:40.631Z,96.50
2024-05-09T15:12:11.449Z,96.70
2024-05-09T15:14:42.092Z,97.00
2024-05-09T15:17:13.081Z,96.60
2024-05-09T15:19:43.714Z,96.60
2024-05-09T15:22:18.091Z,96.70
2024-05-09T15:24:49.804Z,96.60
2024-05-09T15:27:20.820Z,96.70
2024-05-09T15:29:51.898Z,97.10
2024-05-09T15:32:22.445Z,97.00
2024-05-09T15:34:52.913Z,96.70
2024-05-09T15:37:24.046Z,96.90
2024-05-09T15:39:55.137Z,96.60
2024-05-09T15:42:28.941Z,96.50
2024-05-09T15:44:59.469Z,96.70
2024-05-09T15:47:30.391Z,96.90
2024-05-09T15:50:01.074Z,96.90
2024-05-09T15:52:31.978Z,96.90
2024-05-09T15:55:02.788Z,97.00
2024-05-09T15:57:33.404Z,97.10
2024-05-09T16:00:05.979Z,97.40
2024-05-09T16:02:38.202Z,97.40
2024-05-09T16:05:09.352Z,97.40
2024-05-09T16:07:40.825Z,97.30
2024-05-09T16:10:16.329Z,97.10
2024-05-09T16:12:50.473Z,97.20
2024-05-09T16:15:21.447Z,97.40
2024-05-09T16:17:51.977Z,97.60
2024-05-09T16:20:33.980Z,97.50
2024-05-09T16:23:10.647Z,97.50
2024-05-09T16:25:46.910Z,97.60
2024-05-09T16:28:17.399Z,98.10
2024-05-09T16:30:48.029Z,97.70
2024-05-09T16:33:22.736Z,97.50
2024-05-09T16:35:57.012Z,97.60
2024-05-09T16:38:36.222Z,97.60
2024-05-09T16:41:06.739Z,97.50
2024-05-09T16:43:37.770Z,97.30
2024-05-09T16:46:09.054Z,97.30
2024-05-09T16:48:42.344Z,97.00
2024-05-09T16:51:13.751Z,96.90
2024-05-09T16:53:44.284Z,97.00
2024-05-09T16:56:16.948Z,96.90
2024-05-09T16:58:47.622Z,97.10
2024-05-09T17:01:18.307Z,97.10
2024-05-09T17:03:49.075Z,97.10
2024-05-09T17:06:20.044Z,97.10
2024-05-09T17:08:50.536Z,96.90
2024-05-09T17:11:21.666Z,96.90
2024-05-09T17:13:52.510Z,97.10
2024-05-09T17:16:24.284Z,96.90
2024-05-09T17:18:54.791Z,96.90
2024-05-09T17:21:25.287Z,96.90
2024-05-09T17:23:57.375Z,96.80
2024-05-09T17:26:28.019Z,96.70
2024-05-09T17:28:58.490Z,96.60
2024-05-09T17:31:29.120Z,96.30
2024-05-09T17:34:00.359Z,96.30
2024-05-09T17:36:31.061Z,96.40
2024-05-09T17:39:01.520Z,96.30
2024-05-09T17:41:31.972Z,96.30
2024-05-09T17:44:02.777Z,96.30
2024-05-09T17:46:33.712Z,96.70
2024-05-09T17:49:04.315Z,96.40
2024-05-09T17:51:35.055Z,96.30
2024-05-09T17:54:06.070Z,96.50
2024-05-09T17:56:36.870Z,96.70
2024-05-09T17:59:09.936Z,96.50
2024-05-09T18:01:42.393Z,96.70
2024-05-09T18:04:13.227Z,96.80
2024-05-09T18:06:44.186Z,96.80
2024-05-09T18:09:14.581Z,96.90
2024-05-09T18:11:45.205Z,96.90
2024-05-09T18:14:15.559Z,96.90
2024-05-09T18:16:46.074Z,97.00
2024-05-09T18:19:16.701Z,97.00
2024-05-09T18:21:47.559Z,97.10
2024-05-09T18:24:18.459Z,97.10
2024-05-09T18:26:49.586Z,97.20
2024-05-09T18:29:22.271Z,97.40
2024-05-09T18:31:53.792Z,97.50
2024-05-09T18:34:24.324Z,97.50
2024-05-09T18:36:55.295Z,97.80
2024-05-09T18:39:26.334Z,97.80
2024-05-09T18:41:56.806Z,97.90
2024-05-09T18:44:27.188Z,98.10
2024-05-09T18:46:58.352Z,98.30
2024-05-09T18:49:29.572Z,98.30
2024-05-09T18:52:00.353Z,98.10
2024-05-09T18:54:30.828Z,98.10
2024-05-09T18:57:01.443Z,98.20
2024-05-09T18:59:31.799Z,98.00
2024-05-09T19:02:02.514Z,98.30
2024-05-09T19:04:33.149Z,97.70
2024-05-09T19:07:06.576Z,97.70
2024-05-09T19:09:37.111Z,97.60
2024-05-09T19:12:08.370Z,97.70
2024-05-09T19:14:38.761Z,97.90
2024-05-09T19:17:10.311Z,97.90
2024-05-09T19:19:40.734Z,98.10
2024-05-09T19:22:11.343Z,98.30
2024-05-09T19:24:41.748Z,98.20
2024-05-09T19:27:15.618Z,98.30
2024-05-09T19:29:45.998Z,98.40
2024-05-09T19:32:16.601Z,98.50
2024-05-09T19:34:47.033Z,98.50
2024-05-09T19:37:17.738Z,98.50
2024-05-09T19:39:48.728Z,98.70
2024-05-09T19:42:19.712Z,98.70
2024-05-09T19:44:50.512Z,99.10
2024-05-09T19:47:22.011Z,98.80
2024-05-09T19:49:52.641Z,98.70
2024-05-09T19:52:23.185Z,98.70
2024-05-09T19:54:53.559Z,98.60
2024-05-09T19:57:24.098Z,98.60
2024-05-09T19:59:54.461Z,98.40
2024-05-09T20:02:25.996Z,98.70
2024-05-09T20:04:57.257Z,98.20
2024-05-09T20:07:27.829Z,98.10
2024-05-09T20:09:58.748Z,98.20
2024-05-09T20:12:29.903Z,98.30
2024-05-09T20:15:00.577Z,98.40
2024-05-09T20:17:31.122Z,98.30
2024-05-09T20:20:07.403Z,98.30
2024-05-09T20:22:40.076Z,98.30
2024-05-09T20:25:12.197Z,98.20
2024-05-09T20:27:42.895Z,98.30
2024-05-09T20:30:20.880Z,98.70
2024-05-09T20:32:55.660Z,98.60
2024-05-09T20:35:26.081Z,98.40
2024-05-09T20:37:56.571Z,98.40
2024-05-09T20:40:32.515Z,98.40
2024-05-09T20:43:07.262Z,98.50
2024-05-09T20:45:38.244Z,98.60
2024-05-09T20:48:10.100Z,98.60
2024-05-09T20:50:42.435Z,98.70
2024-05-09T20:53:15.383Z,98.70
2024-05-09T20:55:46.503Z,98.90
2024-05-09T20:58:17.974Z,98.90
2024-05-09T21:00:48.625Z,99.00
2024-05-09T21:03:19.262Z,99.00
2024-05-09T21:05:49.866Z,99.20
2024-05-09T21:08:30.903Z,99.20
2024-05-09T21:11:01.715Z,99.20
2024-05-09T21:13:32.467Z,99.00
2024-05-09T21:16:03.065Z,99.00
2024-05-09T21:18:35.293Z,99.20
2024-05-09T21:21:06.655Z,99.20
2024-05-09T21:23:37.763Z,99.10
2024-05-09T21:26:09.948Z,99.10
2024-05-09T21:28:40.790Z,98.90
2024-05-09T21:31:11.634Z,98.90
2024-05-09T21:33:42.211Z,99.00
2024-05-09T21:36:12.718Z,98.90
2024-05-09T21:38:46.336Z,98.90
2024-05-09T21:41:16.726Z,98.80
2024-05-09T21:43:47.113Z,98.70
2024-05-09T21:46:17.804Z,98.70
2024-05-09T21:48:48.333Z,98.70
2024-05-09T21:51:18.911Z,98.90
2024-05-09T21:53:50.737Z,98.40
2024-05-09T21:56:21.117Z,98.30
2024-05-09T21:58:51.577Z,98.30
2024-05-09T22:01:22.115Z,98.00
2024-05-09T22:03:53.237Z,98.10
2024-05-09T22:09:07.851Z,97.90
2024-05-09T22:11:38.836Z,97.80
2024-05-09T22:14:09.814Z,97.90
2024-05-09T22:16:43.758Z,97.50
2024-05-09T22:19:14.344Z,97.30
2024-05-09T22:21:45.600Z,97.40
2024-05-09T22:24:16.021Z,97.40
2024-05-09T22:26:49.170Z,97.40
2024-05-09T22:29:19.616Z,97.20
2024-05-09T22:31:51.225Z,97.20
2024-05-09T22:34:21.792Z,97.10
2024-05-09T22:36:56.091Z,97.10
2024-05-09T22:39:26.627Z,96.90
2024-05-09T22:41:57.250Z,96.60
2024-05-09T22:44:27.785Z,97.00
2024-05-09T22:46:58.357Z,97.20
2024-05-09T22:49:29.509Z,96.70
2024-05-09T22:52:02.253Z,96.60
2024-05-09T22:54:33.099Z,96.50
2024-05-09T22:57:04.412Z,96.50
2024-05-09T22:59:35.071Z,96.40
2024-05-09T23:02:06.089Z,95.80
2024-05-09T23:04:36.699Z,95.80
2024-05-09T23:07:07.730Z,95.90
2024-05-09T23:09:38.351Z,95.90
2024-05-09T23:12:09.295Z,95.90
2024-05-09T23:14:39.744Z,96.10
2024-05-09T23:17:10.154Z,95.80
2024-05-09T23:19:40.622Z,95.70
2024-05-09T23:22:11.049Z,95.70
2024-05-09T23:24:42.229Z,95.60
2024-05-09T23:27:12.918Z,95.60
2024-05-09T23:29:43.317Z,95.20
2024-05-09T23:32:13.771Z,95.30
2024-05-09T23:34:44.309Z,95.30
2024-05-09T23:37:14.855Z,94.80
2024-05-09T23:39:45.812Z,94.60
2024-05-09T23:42:17.868Z,94.90
2024-05-09T23:44:48.383Z,95.00
2024-05-09T23:47:18.802Z,95.00
2024-05-09T23:49:49.720Z,94.80
2024-05-09T23:52:20.218Z,94.90
2024-05-09T23:54:50.741Z,94.90
2024-05-09T23:57:21.175Z,94.50
2024-05-09T23:59:52.380Z,94.20
